DAUH

Oued Irara Airport

Hassi Messaoud, Algeria
METAR DAUH 161800Z 36004KT CAVOK 15/01 Q1018
Observed Flight Rules
Jan-16 @ 18:00 UTC (24 minutes ago) Visual Flight Rules
Wind Visibility Clouds
360° at 4 knots 10,000+ meters
  • Clear skies
Temperatures Readings
Current 15°C / 59°F
Dewpoint 1°C / 34°F
Humidity 39%
Altimeter 30.06" Hg
Pressure 1017.92 hPa
Elevation 142
METAR DAUH 161800Z 36004KT CAVOK 15/01 Q1018
Observed Flight Rules
Jan-16 @ 18:00 UTC
(24 minutes ago)
VFR
Wind Visibility
360° at 4 knots 10,000+ meters
Clouds
  • Clear skies
Temperature Dewpoint
15°C / 59°F 1°C / 34°F
Humidity Altimeter Pressure
39% 30.06" Hg 1017.92 hPa